Time;durP1;ratioP1;P1;durP2;ratioP2;P2;SDS_P1;SDS_P2;PMS_P1;PMS_P2;Temp;Humidity;BMP_temperature;BMP_pressure;BME280_temperature;BME280_humidity;BME280_pressure;Samples;Min_cycle;Max_cycle;Signal;HPM_P1;HPM_P2
2022/07/30 00:00:23;;;;;;;9.68;6.00;;;;;;;18.80;75.95;100120.45;2858145;82;21065;-55
2022/07/30 00:04:36;;;;;;;13.93;6.42;;;;;;;18.76;77.39;100124.55;2860734;82;21341;-55
2022/07/30 00:08:37;;;;;;;8.70;6.85;;;;;;;18.73;78.09;100120.34;2857605;82;21136;-55
2022/07/30 00:12:40;;;;;;;12.25;7.05;;;;;;;18.73;77.00;100123.05;2844253;80;20981;-56
2022/07/30 00:16:54;;;;;;;12.00;7.72;;;;;;;18.77;76.75;100116.78;2879485;82;21046;-56
2022/07/30 00:20:55;;;;;;;9.30;7.60;;;;;;;18.79;76.65;100124.17;2882136;82;21010;-56
2022/07/30 00:24:57;;;;;;;10.32;6.87;;;;;;;18.79;77.10;100123.67;2881952;82;21042;-55
2022/07/30 00:28:58;;;;;;;9.05;6.47;;;;;;;18.80;77.68;100121.80;2838988;82;21028;-57
2022/07/30 00:33:00;;;;;;;10.63;7.28;;;;;;;18.79;77.89;100124.17;2842645;82;21053;-55
2022/07/30 00:37:02;;;;;;;11.43;6.95;;;;;;;18.84;77.93;100121.26;2839179;81;21141;-56
2022/07/30 00:41:04;;;;;;;10.90;9.00;;;;;;;18.79;77.91;100118.78;2797623;82;21045;-54
2022/07/30 00:45:08;;;;;;;11.00;6.92;;;;;;;18.73;77.56;100118.18;2797773;83;21146;-55
2022/07/30 00:49:09;;;;;;;11.55;7.00;;;;;;;18.72;77.91;100119.20;2827046;82;21014;-55
2022/07/30 00:53:11;;;;;;;204.55;48.90;;;;;;;18.72;78.03;100119.20;2758530;83;21090;-56
2022/07/30 00:57:12;;;;;;;70.80;18.95;;;;;;;18.76;78.27;100114.59;2805767;83;21293;-54
2022/07/30 01:01:15;;;;;;;58.20;17.40;;;;;;;18.83;78.71;100101.22;2855891;82;21038;-56
2022/07/30 01:05:16;;;;;;;37.00;11.78;;;;;;;18.80;78.17;100092.16;2810143;84;21027;-56
2022/07/30 01:09:22;;;;;;;24.02;8.83;;;;;;;18.82;78.05;100081.54;2847512;81;21013;-55
2022/07/30 01:13:23;;;;;;;10.88;6.83;;;;;;;18.82;78.17;100082.03;2801617;82;21024;-55
2022/07/30 01:17:25;;;;;;;10.55;6.45;;;;;;;18.88;78.14;100078.62;2814570;82;21019;-55
2022/07/30 01:21:31;;;;;;;10.68;6.58;;;;;;;18.91;77.18;100079.59;2842255;82;21095;-55
2022/07/30 01:25:42;;;;;;;8.48;5.80;;;;;;;18.93;76.61;100076.20;2818368;81;21100;-55
2022/07/30 01:29:49;;;;;;;15.58;7.47;;;;;;;18.87;75.94;100080.14;2880696;82;21141;-57
2022/07/30 01:33:51;;;;;;;17.00;6.10;;;;;;;18.88;75.65;100084.01;2850913;82;20965;-55
2022/07/30 01:37:55;;;;;;;12.37;6.47;;;;;;;18.90;75.21;100078.41;2843134;82;21027;-55
2022/07/30 01:41:57;;;;;;;6.07;5.07;;;;;;;18.88;74.98;100073.72;2812833;82;21326;-55
2022/07/30 01:46:02;;;;;;;12.90;5.58;;;;;;;18.89;74.83;100088.88;2817404;81;21439;-57
2022/07/30 01:50:27;;;;;;;9.07;5.57;;;;;;;18.93;75.32;100082.94;2807299;83;21012;-55
2022/07/30 01:54:31;;;;;;;8.60;6.12;;;;;;;19.01;75.74;100091.97;2841573;81;21000;-57
2022/07/30 01:58:51;;;;;;;10.68;5.05;;;;;;;19.05;76.08;100087.87;2818195;82;21078;-58
2022/07/30 02:02:59;;;;;;;9.03;4.53;;;;;;;19.07;75.76;100077.77;2809551;83;20994;-54
2022/07/30 02:07:32;;;;;;;11.08;4.42;;;;;;;19.09;75.52;100070.33;2793850;84;21011;-57
2022/07/30 02:16:25;;;;;;;7.70;5.22;;;;;;;19.20;75.09;100051.48;2805964;82;21078;-55
2022/07/30 02:20:31;;;;;;;9.35;5.08;;;;;;;19.18;75.57;100041.41;2834562;82;21079;-55
2022/07/30 02:24:41;;;;;;;12.10;5.50;;;;;;;19.09;76.83;100053.63;2851778;82;21163;-54
2022/07/30 02:28:50;;;;;;;8.05;4.62;;;;;;;19.12;77.26;100053.23;2813495;82;21015;-56
2022/07/30 02:37:25;;;;;;;12.05;5.60;;;;;;;19.22;77.21;100048.91;2799863;83;21157;-55
2022/07/30 02:41:30;;;;;;;9.10;5.97;;;;;;;19.26;77.11;100050.22;2836706;82;21013;-55
2022/07/30 02:45:34;;;;;;;11.45;5.87;;;;;;;19.27;77.22;100045.65;2858176;82;21237;-55
2022/07/30 02:49:38;;;;;;;20.48;6.45;;;;;;;19.29;77.34;100038.20;2837079;81;21046;-57
2022/07/30 02:53:45;;;;;;;12.50;6.22;;;;;;;19.23;77.64;100030.87;2869204;81;21038;-56
2022/07/30 02:57:49;;;;;;;11.35;5.87;;;;;;;19.09;77.66;100024.50;2819629;84;21101;-56
2022/07/30 03:01:52;;;;;;;9.73;5.45;;;;;;;19.02;77.92;100023.56;2869106;82;21045;-56
2022/07/30 03:05:55;;;;;;;8.23;5.53;;;;;;;18.87;77.54;100021.70;2879133;82;21003;-55
2022/07/30 03:09:59;;;;;;;4.83;4.28;;;;;;;18.77;77.64;100017.09;2887159;80;21042;-55
2022/07/30 03:14:01;;;;;;;7.05;5.53;;;;;;;18.75;77.30;100016.45;2863475;82;21020;-55
2022/07/30 03:18:06;;;;;;;5.33;4.35;;;;;;;18.74;77.98;100013.44;2815432;82;20987;-57
2022/07/30 03:22:18;;;;;;;5.90;4.35;;;;;;;18.82;78.95;100021.41;2854332;82;21078;-56
2022/07/30 03:26:23;;;;;;;7.95;5.47;;;;;;;18.87;79.30;100024.41;2779656;84;21250;-58
2022/07/30 03:30:28;;;;;;;8.60;4.28;;;;;;;18.95;79.68;100024.29;2784279;83;21063;-55
2022/07/30 03:34:33;;;;;;;5.90;4.20;;;;;;;19.06;79.53;100032.94;2808701;82;21059;-56
2022/07/30 03:38:38;;;;;;;4.67;4.17;;;;;;;19.11;79.06;100024.61;2822718;82;21326;-58
2022/07/30 03:42:42;;;;;;;11.18;5.40;;;;;;;19.17;78.50;100023.56;2814856;82;21060;-55
2022/07/30 03:46:44;;;;;;;5.30;3.30;;;;;;;19.21;78.18;100019.45;2850689;82;21045;-56
2022/07/30 03:50:46;;;;;;;8.43;4.15;;;;;;;19.26;78.37;100019.22;2829927;82;21007;-55
2022/07/30 03:54:48;;;;;;;7.42;4.33;;;;;;;19.28;78.31;100020.36;2793212;82;21054;-56
2022/07/30 03:59:10;;;;;;;6.72;3.95;;;;;;;19.33;78.59;100021.14;2813416;82;21040;-56
2022/07/30 04:03:11;;;;;;;4.40;3.77;;;;;;;19.34;78.80;100020.94;2766139;83;21011;-55
2022/07/30 04:07:13;;;;;;;8.05;4.50;;;;;;;19.38;78.40;100017.36;2872427;80;21100;-55
2022/07/30 04:11:14;;;;;;;5.58;3.30;;;;;;;19.45;78.46;100013.39;2839755;81;21018;-54
2022/07/30 04:15:16;;;;;;;3.92;3.17;;;;;;;19.50;78.26;100013.14;2813380;82;21002;-56
2022/07/30 04:19:31;;;;;;;4.55;3.08;;;;;;;19.54;77.96;100010.88;2846315;80;20987;-55
2022/07/30 04:28:13;;;;;;;5.85;3.35;;;;;;;19.62;78.78;100025.61;2757317;82;21130;-93
2022/07/30 04:32:15;;;;;;;9.10;4.50;;;;;;;19.63;80.59;100030.47;2709985;84;21137;-93
2022/07/30 04:36:16;;;;;;;7.60;4.05;;;;;;;19.44;81.72;100032.77;2845350;82;21021;-91
2022/07/30 04:40:18;;;;;;;3.83;3.42;;;;;;;19.36;82.59;100034.24;2777697;81;21025;-92
2022/07/30 04:44:19;;;;;;;7.05;4.53;;;;;;;19.25;82.85;100037.73;2851113;81;21138;-93
2022/07/30 04:48:21;;;;;;;5.55;3.92;;;;;;;19.12;83.52;100045.16;2799083;82;21092;-91
2022/07/30 04:52:43;;;;;;;7.10;5.22;;;;;;;19.18;85.40;100062.45;2802053;82;21174;-94
2022/07/30 04:56:48;;;;;;;9.65;7.47;;;;;;;19.09;88.30;100071.67;2807581;82;21038;-90
2022/07/30 05:00:51;;;;;;;18.77;12.50;;;;;;;19.06;87.92;100072.88;2805312;81;21066;-93
2022/07/30 05:04:54;;;;;;;18.87;7.72;;;;;;;19.04;87.92;100071.37;2765277;84;21032;-92
2022/07/30 05:08:56;;;;;;;13.18;11.22;;;;;;;19.13;88.74;100062.18;2831641;81;21585;-93
2022/07/30 05:12:58;;;;;;;16.10;13.72;;;;;;;19.12;88.77;100061.33;2806413;81;21166;-92
2022/07/30 05:16:59;;;;;;;7.92;7.03;;;;;;;19.18;88.63;100054.36;2834433;82;21139;-93
2022/07/30 05:21:01;;;;;;;8.90;5.03;;;;;;;18.96;89.41;100055.60;2820126;82;21132;-94
2022/07/30 05:25:03;;;;;;;8.53;4.37;;;;;;;18.76;89.85;100053.15;2837291;82;21159;-95
2022/07/30 05:29:05;;;;;;;8.03;5.67;;;;;;;18.79;90.20;100051.42;2833606;81;21113;-94
2022/07/30 05:33:06;;;;;;;9.48;4.37;;;;;;;18.89;90.96;100056.04;2779257;83;21185;-89
2022/07/30 05:37:08;;;;;;;5.42;4.83;;;;;;;18.93;90.77;100050.59;2827043;81;21570;-94
2022/07/30 05:41:09;;;;;;;6.40;3.47;;;;;;;19.03;91.64;100044.95;2852699;80;21076;-95
2022/07/30 05:45:11;;;;;;;4.05;3.52;;;;;;;19.04;91.53;100032.29;2825461;81;21135;-94
2022/07/30 05:49:14;;;;;;;4.40;3.05;;;;;;;19.10;91.87;100039.64;2780392;83;21074;-94
2022/07/30 05:53:16;;;;;;;4.17;3.37;;;;;;;19.13;92.08;100041.96;2833686;82;21072;-91
2022/07/30 05:57:17;;;;;;;4.33;3.37;;;;;;;19.20;92.15;100038.83;2855947;80;21035;-93
2022/07/30 06:01:19;;;;;;;9.70;3.77;;;;;;;19.25;90.56;100036.39;2833093;81;21082;-91
2022/07/30 06:05:20;;;;;;;9.13;3.10;;;;;;;19.24;90.92;100042.80;2858489;81;21074;-93
2022/07/30 06:09:22;;;;;;;5.83;3.55;;;;;;;19.28;91.97;100038.41;2846108;80;21050;-91
2022/07/30 06:13:23;;;;;;;6.28;3.40;;;;;;;19.33;91.83;100039.48;2854308;81;21101;-93
2022/07/30 06:17:25;;;;;;;7.75;4.00;;;;;;;19.35;91.08;100041.48;2818854;82;21044;-92
2022/07/30 06:21:26;;;;;;;5.35;3.62;;;;;;;19.32;91.48;100043.22;2812434;80;21047;-93
2022/07/30 06:25:27;;;;;;;6.83;2.85;;;;;;;19.32;91.65;100046.44;2814532;82;21024;-93
2022/07/30 06:29:29;;;;;;;5.28;3.65;;;;;;;19.30;91.87;100047.14;2799013;83;21055;-93
2022/07/30 06:33:31;;;;;;;8.33;3.98;;;;;;;19.32;92.45;100049.95;2821408;81;21540;-93
2022/07/30 06:37:32;;;;;;;6.50;2.72;;;;;;;19.34;92.28;100050.59;2823461;82;21069;-93
2022/07/30 06:41:34;;;;;;;19.60;4.17;;;;;;;19.37;91.85;100048.05;2817834;83;21032;-94
2022/07/30 06:45:35;;;;;;;4.30;2.72;;;;;;;19.38;90.99;100053.77;2822768;81;21302;-92
2022/07/30 06:49:37;;;;;;;3.05;2.85;;;;;;;19.38;90.41;100052.41;2820782;82;21000;-92
2022/07/30 06:53:39;;;;;;;6.40;4.05;;;;;;;19.46;90.47;100050.97;2819393;81;21059;-93
2022/07/30 06:57:40;;;;;;;8.83;4.22;;;;;;;19.54;91.30;100053.54;2821601;82;21067;-93
2022/07/30 07:10:53;;;;;;;3.35;2.83;;;;;;;19.52;91.53;100066.38;2898574;80;21063;-93
2022/07/30 07:14:54;;;;;;;6.00;3.15;;;;;;;19.53;91.47;100067.20;2853424;80;71234;-61
2022/07/30 07:19:16;;;;;;;5.03;3.17;;;;;;;19.48;90.13;100063.75;2913954;80;21298;-61
2022/07/30 07:23:17;;;;;;;4.15;3.10;;;;;;;19.46;91.37;100068.50;2915266;80;20974;-61
2022/07/30 07:27:18;;;;;;;7.20;3.05;;;;;;;19.38;91.49;100073.49;2871147;81;21035;-59
2022/07/30 07:31:20;;;;;;;4.33;2.58;;;;;;;19.37;92.51;100070.47;2913593;80;21243;-58
2022/07/30 07:35:21;;;;;;;2.92;2.55;;;;;;;19.31;93.08;100079.30;2886626;81;21019;-58
2022/07/30 07:39:36;;;;;;;5.10;2.60;;;;;;;19.32;93.65;100078.80;2811864;83;21046;-60
2022/07/30 07:43:37;;;;;;;3.47;3.17;;;;;;;19.33;93.59;100078.59;2826130;82;20972;-59
2022/07/30 07:47:47;;;;;;;4.70;3.35;;;;;;;19.27;93.32;100073.96;2877447;80;21026;-60
2022/07/30 07:51:48;;;;;;;4.95;2.77;;;;;;;19.28;94.48;100078.33;2819045;82;21112;-60
2022/07/30 07:55:52;;;;;;;3.20;2.37;;;;;;;19.30;94.40;100069.53;2846485;82;21011;-58
2022/07/30 07:59:54;;;;;;;8.38;3.22;;;;;;;19.28;95.06;100078.33;2846277;82;20960;-58
2022/07/30 08:03:56;;;;;;;4.65;3.40;;;;;;;19.28;94.95;100074.81;2849660;82;20983;-58
2022/07/30 08:07:58;;;;;;;4.72;3.52;;;;;;;19.25;94.86;100070.63;2855475;81;21070;-60
2022/07/30 08:12:00;;;;;;;2.92;2.47;;;;;;;19.20;95.74;100071.70;2889928;80;71338;-93
2022/07/30 08:16:02;;;;;;;6.72;3.47;;;;;;;19.16;95.52;100079.82;2822666;81;21073;-93
2022/07/30 08:20:05;;;;;;;3.52;2.25;;;;;;;19.10;95.62;100083.59;2833477;82;21068;-95
2022/07/30 08:24:07;;;;;;;4.70;2.95;;;;;;;19.11;95.78;100092.53;2812872;82;21043;-93
2022/07/30 08:28:09;;;;;;;5.60;2.12;;;;;;;19.10;95.82;100092.21;2742877;83;21075;-94
2022/07/30 08:32:10;;;;;;;3.92;2.65;;;;;;;19.07;96.64;100095.28;2792659;81;21032;-92
2022/07/30 08:36:12;;;;;;;5.67;2.98;;;;;;;18.95;96.57;100088.97;2804874;81;21026;-96
2022/07/30 08:40:13;;;;;;;7.05;3.33;;;;;;;18.98;97.02;100089.97;2819307;79;21016;-89
2022/07/30 08:44:17;;;;;;;4.08;3.67;;;;;;;18.91;97.83;100083.63;2833574;81;21018;-93
2022/07/30 08:48:21;;;;;;;5.65;3.42;;;;;;;18.93;98.42;100089.67;2863550;82;21026;-93
2022/07/30 08:52:23;;;;;;;6.17;3.70;;;;;;;18.92;98.99;100084.45;2851289;81;21058;-93
2022/07/30 08:56:25;;;;;;;6.83;3.27;;;;;;;18.92;98.03;100090.69;2751394;84;21055;-94
2022/07/30 09:00:27;;;;;;;7.58;3.50;;;;;;;18.94;98.63;100090.48;2857897;81;21022;-93
2022/07/30 09:08:35;;;;;;;2.77;2.58;;;;;;;18.86;99.99;100083.33;2890741;79;21086;-91
2022/07/30 09:12:44;;;;;;;4.62;3.02;;;;;;;18.80;100.00;100071.95;2891983;79;71474;-63
2022/07/30 09:16:46;;;;;;;6.25;3.72;;;;;;;18.75;100.00;100071.68;2919994;79;21088;-67
2022/07/30 09:20:48;;;;;;;6.15;3.77;;;;;;;18.74;100.00;100073.52;2909038;80;21132;-65
2022/07/30 09:24:49;;;;;;;7.50;3.15;;;;;;;18.78;100.00;100086.12;2958058;79;21046;-61
2022/07/30 09:28:51;;;;;;;5.92;4.00;;;;;;;18.77;100.00;100068.29;2894908;78;21007;-61
2022/07/30 09:32:56;;;;;;;3.83;3.33;;;;;;;18.73;100.00;100082.62;2897180;78;20983;-62
2022/07/30 09:37:06;;;;;;;6.05;4.28;;;;;;;18.74;100.00;100078.09;2976917;78;21051;-62
2022/07/30 09:41:09;;;;;;;4.60;3.60;;;;;;;18.78;100.00;100086.98;3007178;77;21073;-61
2022/07/30 09:45:14;;;;;;;3.87;3.40;;;;;;;18.85;100.00;100092.44;3030981;77;21115;-61
2022/07/30 09:49:23;;;;;;;4.10;3.37;;;;;;;18.98;100.00;100096.70;3018766;77;21020;-59
2022/07/30 09:53:27;;;;;;;6.47;3.60;;;;;;;19.04;100.00;100090.24;3008910;78;20996;-60
2022/07/30 09:57:29;;;;;;;4.37;3.98;;;;;;;19.09;100.00;100090.02;2989839;77;20985;-62
2022/07/30 10:01:51;;;;;;;7.42;4.60;;;;;;;19.06;100.00;100082.80;2968208;78;20994;-65
2022/07/30 10:05:58;;;;;;;10.58;3.70;;;;;;;19.01;100.00;100094.66;3024734;78;21015;-63
2022/07/30 10:10:00;;;;;;;3.83;3.35;;;;;;;18.98;100.00;100081.89;2977935;78;21114;-63
2022/07/30 10:14:03;;;;;;;4.25;3.83;;;;;;;18.96;100.00;100077.66;3000518;77;21134;-61
2022/07/30 10:18:06;;;;;;;4.17;3.77;;;;;;;19.00;100.00;100072.78;2988642;77;21053;-63
2022/07/30 10:22:09;;;;;;;10.08;4.33;;;;;;;19.01;100.00;100068.56;3008644;78;21034;-62
2022/07/30 10:26:11;;;;;;;5.45;4.47;;;;;;;19.06;100.00;100069.33;3009247;78;20985;-63
2022/07/30 10:30:13;;;;;;;5.15;4.40;;;;;;;19.08;100.00;100068.13;2962336;78;21028;-61
2022/07/30 10:34:19;;;;;;;4.70;4.25;;;;;;;19.08;100.00;100065.43;3032544;78;20992;-61
2022/07/30 10:38:25;;;;;;;6.75;6.10;;;;;;;19.08;100.00;100065.43;3021084;76;21030;-62
2022/07/30 10:43:14;;;;;;;7.28;5.30;;;;;;;19.08;100.00;100060.03;3011546;78;21153;-61
2022/07/30 10:47:32;;;;;;;13.90;5.35;;;;;;;19.16;100.00;100064.99;3026642;78;21035;-61
2022/07/30 10:51:46;;;;;;;7.90;6.20;;;;;;;19.11;100.00;100054.80;3005988;78;21030;-62
2022/07/30 10:55:53;;;;;;;7.37;6.03;;;;;;;19.14;100.00;100058.45;2961782;78;21017;-61
2022/07/30 10:59:59;;;;;;;5.33;4.40;;;;;;;19.17;100.00;100061.30;2999087;78;21011;-62
2022/07/30 11:04:23;;;;;;;7.58;6.25;;;;;;;19.15;100.00;100059.28;3006824;77;21014;-64
2022/07/30 11:08:35;;;;;;;5.45;4.85;;;;;;;19.13;100.00;100056.79;3025354;78;21027;-61
2022/07/30 11:12:48;;;;;;;5.58;5.08;;;;;;;19.16;100.00;100056.41;3020127;78;21029;-62
2022/07/30 11:16:55;;;;;;;7.05;6.40;;;;;;;19.16;100.00;100056.41;3008352;78;21049;-62
2022/07/30 11:21:20;;;;;;;8.43;5.95;;;;;;;19.16;100.00;100059.10;3012085;76;20988;-62
2022/07/30 11:34:24;;;;;;;7.95;6.00;;;;;;;19.00;100.00;100053.41;2822610;81;21078;-60
2022/07/30 11:38:25;;;;;;;7.78;5.80;;;;;;;18.98;100.00;100058.13;2780796;83;21079;-60
2022/07/30 11:42:37;;;;;;;8.33;5.17;;;;;;;18.92;100.00;100052.11;2692180;85;21048;-61
2022/07/30 11:46:54;;;;;;;6.20;5.70;;;;;;;18.81;100.00;100049.38;2691249;85;21055;-60
2022/07/30 11:51:16;;;;;;;5.67;5.17;;;;;;;18.86;100.00;100048.83;2718647;85;21023;-61
2022/07/30 11:55:39;;;;;;;4.85;4.30;;;;;;;18.80;100.00;100046.36;2674242;85;21118;-60
2022/07/30 11:59:57;;;;;;;5.53;4.62;;;;;;;18.75;100.00;100047.44;2697011;85;21008;-60
2022/07/30 12:04:05;;;;;;;5.75;4.62;;;;;;;18.64;100.00;100044.69;2777487;85;21067;-59
2022/07/30 12:08:08;;;;;;;7.22;4.92;;;;;;;18.63;100.00;100043.02;2797329;83;21101;-61
2022/07/30 12:12:23;;;;;;;6.00;5.40;;;;;;;18.62;100.00;100046.73;2772983;83;21007;-64
2022/07/30 12:16:26;;;;;;;5.63;5.13;;;;;;;18.60;100.00;100048.25;2801680;84;21273;-63
2022/07/30 12:20:28;;;;;;;5.20;4.65;;;;;;;18.60;100.00;100057.69;2697608;85;20996;-61
2022/07/30 12:24:33;;;;;;;5.05;4.05;;;;;;;18.64;100.00;100056.81;2718974;85;21040;-62
2022/07/30 12:28:35;;;;;;;5.43;4.93;;;;;;;18.47;100.00;100023.31;2717952;85;21086;-61
2022/07/30 12:32:37;;;;;;;5.12;4.47;;;;;;;18.47;100.00;100023.31;2712738;85;21500;-61
2022/07/30 12:36:43;;;;;;;5.28;4.45;;;;;;;18.63;100.00;100052.45;2721127;86;21552;-60
2022/07/30 12:41:03;;;;;;;6.00;4.30;;;;;;;18.59;100.00;100053.31;2724290;85;21013;-61
2022/07/30 12:45:06;;;;;;;5.47;4.62;;;;;;;18.57;100.00;100055.36;2709925;84;21101;-63
2022/07/30 12:49:08;;;;;;;5.90;5.30;;;;;;;18.61;100.00;100048.58;2757383;84;20992;-65
2022/07/30 12:53:09;;;;;;;8.58;4.70;;;;;;;18.62;100.00;100045.39;2742226;85;21043;-67
2022/07/30 12:57:10;;;;;;;9.18;4.17;;;;;;;18.59;100.00;100042.55;2722200;85;21091;-65
2022/07/30 13:01:13;;;;;;;5.75;5.17;;;;;;;18.52;100.00;100036.23;2705263;85;21366;-65
2022/07/30 13:05:14;;;;;;;7.80;5.15;;;;;;;18.49;100.00;100041.99;2825417;82;21286;-65
2022/07/30 13:09:20;;;;;;;3.12;2.83;;;;;;;18.44;100.00;100038.50;2840571;81;21066;-64
2022/07/30 13:13:22;;;;;;;4.08;3.67;;;;;;;18.41;100.00;100043.73;2831251;82;20991;-63
2022/07/30 13:17:25;;;;;;;4.50;3.12;;;;;;;18.37;100.00;100041.58;2820996;83;21055;-63
2022/07/30 13:21:26;;;;;;;3.08;2.55;;;;;;;18.33;100.00;100043.81;2829101;83;20999;-62
2022/07/30 13:25:27;;;;;;;3.85;3.35;;;;;;;18.36;100.00;100040.75;2818338;83;21086;-63
2022/07/30 13:29:29;;;;;;;3.15;2.25;;;;;;;18.38;100.00;100042.75;2823462;80;21393;-62
2022/07/30 13:33:30;;;;;;;2.85;2.37;;;;;;;18.33;100.00;100045.16;2823805;83;21012;-63
2022/07/30 13:37:32;;;;;;;3.50;2.47;;;;;;;18.38;100.00;100046.79;2897960;79;72214;-95
2022/07/30 13:41:34;;;;;;;2.75;2.55;;;;;;;18.36;100.00;100044.80;2885297;81;21011;-96
2022/07/30 13:45:36;;;;;;;4.05;3.62;;;;;;;18.37;100.00;100043.77;2895443;80;21036;-95
2022/07/30 13:49:42;;;;;;;6.28;3.27;;;;;;;18.41;100.00;100043.73;2885274;80;21575;-93
2022/07/30 13:53:53;;;;;;;3.87;3.25;;;;;;;18.44;100.00;100036.30;3006391;77;21771;-95
2022/07/30 13:57:56;;;;;;;3.75;2.77;;;;;;;18.48;100.00;100042.48;2887712;79;21020;-93
2022/07/30 14:01:59;;;;;;;3.27;2.75;;;;;;;18.46;100.00;100040.49;2909896;79;21000;-92
2022/07/30 14:06:01;;;;;;;5.53;3.62;;;;;;;18.48;100.00;100028.20;2868952;79;75016;-63
2022/07/30 14:10:07;;;;;;;3.45;2.72;;;;;;;18.46;100.00;100040.98;2669097;83;21115;-63
2022/07/30 14:31:50;;;;;;;4.17;3.33;;;;;;;18.69;100.00;100026.95;2809862;83;21069;-66
2022/07/30 14:35:51;;;;;;;6.80;4.58;;;;;;;18.68;100.00;100025.28;2850838;79;21149;-66
2022/07/30 14:44:32;;;;;;;3.92;2.62;;;;;;;18.59;100.00;100016.13;2801725;81;21170;-67
2022/07/30 14:48:33;;;;;;;2.98;2.25;;;;;;;18.48;100.00;100008.00;2858541;80;20994;-66
2022/07/30 14:52:39;;;;;;;3.58;2.37;;;;;;;18.48;100.00;100023.64;2871158;81;21070;-69
2022/07/30 14:56:41;;;;;;;2.90;2.60;;;;;;;18.56;100.00;100020.02;2877579;81;21043;-69
2022/07/30 15:00:43;;;;;;;3.40;2.85;;;;;;;18.56;100.00;100022.19;2816558;82;21007;-66
2022/07/30 15:04:45;;;;;;;2.55;2.35;;;;;;;18.59;100.00;100022.34;2782291;83;21089;-65
2022/07/30 15:08:47;;;;;;;4.03;3.70;;;;;;;18.63;100.00;100019.59;2815237;82;20999;-64
2022/07/30 15:12:49;;;;;;;4.60;3.42;;;;;;;18.68;100.00;100017.20;2749124;83;29263;-64
2022/07/30 15:16:51;;;;;;;3.52;3.22;;;;;;;18.74;100.00;100024.20;2820647;82;21018;-63
2022/07/30 15:20:52;;;;;;;7.33;4.42;;;;;;;18.81;100.00;100020.59;2843124;82;21125;-65
2022/07/30 15:24:53;;;;;;;5.62;5.12;;;;;;;18.85;100.00;100025.07;2857803;80;21159;-63
2022/07/30 15:28:55;;;;;;;4.47;4.08;;;;;;;18.80;100.00;100026.15;2884712;81;21016;-65
2022/07/30 15:32:56;;;;;;;6.12;5.10;;;;;;;18.78;100.00;100026.84;2849657;82;21086;-64
2022/07/30 15:36:57;;;;;;;6.45;4.08;;;;;;;18.75;100.00;100033.44;2852802;82;21062;-63
2022/07/30 15:40:59;;;;;;;6.03;5.50;;;;;;;18.74;100.00;100021.52;2908745;80;21059;-66
2022/07/30 15:45:04;;;;;;;7.72;5.87;;;;;;;18.77;100.00;100031.92;2838742;82;21008;-67
2022/07/30 15:49:18;;;;;;;5.90;5.40;;;;;;;18.74;100.00;100032.30;2766011;84;21000;-67
2022/07/30 15:53:19;;;;;;;7.15;6.00;;;;;;;18.74;100.00;100026.91;2860896;82;21018;-67
2022/07/30 15:57:42;;;;;;;7.08;4.50;;;;;;;18.71;100.00;100032.14;2864076;82;20998;-66
2022/07/30 16:01:47;;;;;;;5.85;5.25;;;;;;;18.72;100.00;100027.08;2847518;81;21520;-63
2022/07/30 16:05:50;;;;;;;6.62;5.25;;;;;;;18.70;100.00;100031.81;2853014;81;21358;-63
2022/07/30 16:09:51;;;;;;;4.17;3.77;;;;;;;18.67;100.00;100031.70;2829638;83;21023;-64
2022/07/30 16:13:53;;;;;;;4.28;3.60;;;;;;;18.64;100.00;100034.73;2852039;83;20967;-63
2022/07/30 16:17:54;;;;;;;5.58;4.62;;;;;;;18.62;100.00;100031.92;2856450;82;21003;-63
2022/07/30 16:21:55;;;;;;;6.10;5.47;;;;;;;18.63;100.00;100035.76;2855157;82;21030;-63
2022/07/30 16:25:56;;;;;;;5.50;4.87;;;;;;;18.55;100.00;100041.25;2861845;82;21172;-63
2022/07/30 16:29:57;;;;;;;4.97;4.58;;;;;;;18.45;100.00;100043.36;2877934;81;20998;-66
2022/07/30 16:33:59;;;;;;;15.78;4.65;;;;;;;18.45;100.00;100051.44;2861742;82;20995;-65
2022/07/30 16:38:01;;;;;;;3.98;3.58;;;;;;;18.39;100.00;100041.73;2820247;83;21027;-67
2022/07/30 16:42:14;;;;;;;4.10;3.70;;;;;;;18.34;100.00;100048.18;2860899;82;21003;-66
2022/07/30 16:46:23;;;;;;;4.58;4.17;;;;;;;18.32;100.00;100048.03;2910318;80;21342;-67
2022/07/30 16:50:24;;;;;;;4.70;4.30;;;;;;;18.31;100.00;100035.59;2904311;80;20936;-65
2022/07/30 16:54:25;;;;;;;5.97;5.30;;;;;;;18.28;100.00;100040.84;2908770;79;21010;-66
2022/07/30 16:58:26;;;;;;;7.12;5.42;;;;;;;18.27;100.00;100041.84;2911822;79;21055;-67
2022/07/30 17:02:27;;;;;;;4.30;4.00;;;;;;;18.23;100.00;100045.91;2880295;80;20972;-66
2022/07/30 17:06:29;;;;;;;5.72;5.12;;;;;;;18.24;100.00;100037.67;2892805;80;21066;-64
2022/07/30 17:10:29;;;;;;;5.53;3.90;;;;;;;18.20;100.00;100035.52;2897447;81;20984;-65
2022/07/30 17:14:35;;;;;;;3.72;3.42;;;;;;;18.19;100.00;100044.61;2917738;80;21022;-64
2022/07/30 17:18:36;;;;;;;4.17;3.77;;;;;;;18.15;100.00;100048.69;2922527;80;21030;-66
2022/07/30 17:22:38;;;;;;;3.75;3.17;;;;;;;18.17;100.00;100048.82;2920686;80;20991;-67
2022/07/30 17:26:42;;;;;;;3.50;3.20;;;;;;;18.18;100.00;100045.63;2922561;80;21023;-69
2022/07/30 17:30:50;;;;;;;3.20;2.87;;;;;;;18.18;100.00;100049.17;2923473;80;21018;-66
2022/07/30 17:34:53;;;;;;;3.92;3.27;;;;;;;18.09;100.00;100048.41;2899983;80;20998;-68
2022/07/30 17:38:54;;;;;;;3.40;3.20;;;;;;;18.04;100.00;100048.09;2931440;80;21038;-66
2022/07/30 17:43:01;;;;;;;3.55;3.25;;;;;;;18.03;100.00;100057.19;2915299;80;21034;-66
2022/07/30 17:47:28;;;;;;;4.30;3.87;;;;;;;18.06;100.00;100056.81;2901965;80;21060;-66
2022/07/30 17:51:35;;;;;;;6.00;4.67;;;;;;;18.00;100.00;100064.25;2895468;80;21035;-67
2022/07/30 17:55:39;;;;;;;4.30;3.22;;;;;;;18.00;100.00;100062.90;2928125;77;21038;-68
2022/07/30 17:59:40;;;;;;;4.37;4.00;;;;;;;18.03;100.00;100064.44;3002533;78;21015;-68
2022/07/30 18:03:47;;;;;;;4.95;4.50;;;;;;;17.96;100.00;100069.66;3018485;78;20989;-68
2022/07/30 18:07:49;;;;;;;4.67;4.05;;;;;;;17.97;100.00;100069.47;3008818;78;20989;-67
2022/07/30 18:11:51;;;;;;;8.15;4.67;;;;;;;17.93;100.00;100067.34;2961285;79;20963;-67
2022/07/30 18:16:04;;;;;;;5.17;3.65;;;;;;;17.88;100.00;100077.28;3007408;78;21044;-66
2022/07/30 18:20:45;;;;;;;6.53;4.20;;;;;;;17.95;100.00;100077.41;2982541;78;21069;-69
2022/07/30 18:34:02;;;;;;;8.43;4.22;;;;;;;17.78;100.00;100085.59;2816366;82;21109;-67
2022/07/30 18:38:04;;;;;;;4.97;4.58;;;;;;;17.78;100.00;100095.01;2850983;82;21047;-68
2022/07/30 18:42:06;;;;;;;7.85;6.17;;;;;;;17.76;100.00;100098.39;2802922;83;21072;-65
2022/07/30 18:46:08;;;;;;;6.50;5.12;;;;;;;17.75;100.00;100106.62;2782670;83;21087;-63
2022/07/30 18:50:12;;;;;;;6.72;6.10;;;;;;;17.69;100.00;100099.59;2770830;84;21078;-66
2022/07/30 18:58:32;;;;;;;6.08;5.53;;;;;;;17.69;100.00;100104.98;2821172;83;21078;-66
2022/07/30 19:02:36;;;;;;;10.43;6.50;;;;;;;17.73;100.00;100114.88;2771697;82;20973;-65
2022/07/30 19:06:37;;;;;;;9.93;6.20;;;;;;;17.69;100.00;100111.70;2781152;83;21112;-64
2022/07/30 19:10:39;;;;;;;7.92;7.17;;;;;;;17.70;100.00;100116.59;2760508;83;21087;-65
2022/07/30 19:14:43;;;;;;;10.38;5.87;;;;;;;17.66;100.00;100109.86;2750009;84;21019;-64
2022/07/30 19:18:44;;;;;;;7.45;5.83;;;;;;;17.62;100.00;100105.86;2813950;83;21133;-62
2022/07/30 19:22:46;;;;;;;9.30;7.35;;;;;;;17.60;100.00;100110.58;2794931;83;21261;-65
2022/07/30 19:26:49;;;;;;;9.50;7.55;;;;;;;17.66;100.00;100118.78;2815565;82;21023;-61
2022/07/30 19:30:50;;;;;;;8.55;7.78;;;;;;;17.62;100.00;100123.34;2867684;82;20954;-62
2022/07/30 19:34:52;;;;;;;8.78;7.90;;;;;;;17.71;100.00;100123.64;2804537;82;21117;-62
2022/07/30 19:38:56;;;;;;;12.78;7.28;;;;;;;17.70;100.00;100132.20;2779159;83;21034;-61
2022/07/30 19:43:01;;;;;;;7.85;7.15;;;;;;;17.63;100.00;100129.90;2774074;85;20996;-63
2022/07/30 19:47:03;;;;;;;;;;;;;;;17.70;100.00;100140.80;2798574;83;21082;-64
2022/07/30 19:51:05;;;;;;;9.83;6.87;;;;;;;17.66;100.00;100134.06;2813658;83;20120;-65
2022/07/30 19:55:07;;;;;;;6.87;6.25;;;;;;;17.65;100.00;100148.04;2806367;83;21002;-62
2022/07/30 19:59:13;;;;;;;7.95;7.15;;;;;;;17.65;100.00;100136.43;2751257;84;21023;-62